sensor_id;sensor_type;location;lat;lon;timestamp;P1;durP1;ratioP1;P2;durP2;ratioP2
8663;SDS011;4369;47.842;13.096;2022-08-11T00:02:26;4.40;;;3.77;;
8663;SDS011;4369;47.842;13.096;2022-08-11T00:05:00;3.90;;;3.60;;
8663;SDS011;4369;47.842;13.096;2022-08-11T00:07:31;4.93;;;3.80;;
8663;SDS011;4369;47.842;13.096;2022-08-11T00:09:58;4.80;;;3.70;;
8663;SDS011;4369;47.842;13.096;2022-08-11T00:12:26;3.73;;;3.53;;
8663;SDS011;4369;47.842;13.096;2022-08-11T00:14:54;3.73;;;3.33;;
8663;SDS011;4369;47.842;13.096;2022-08-11T00:17:29;4.30;;;3.90;;
8663;SDS011;4369;47.842;13.096;2022-08-11T00:20:00;3.70;;;3.40;;
8663;SDS011;4369;47.842;13.096;2022-08-11T00:22:30;4.60;;;3.47;;
8663;SDS011;4369;47.842;13.096;2022-08-11T00:24:58;4.13;;;3.73;;
8663;SDS011;4369;47.842;13.096;2022-08-11T00:27:34;4.80;;;3.40;;
8663;SDS011;4369;47.842;13.096;2022-08-11T00:30:03;4.67;;;3.77;;
8663;SDS011;4369;47.842;13.096;2022-08-11T00:32:33;5.27;;;4.03;;
8663;SDS011;4369;47.842;13.096;2022-08-11T00:35:04;4.43;;;4.10;;
8663;SDS011;4369;47.842;13.096;2022-08-11T00:37:33;4.00;;;3.70;;
8663;SDS011;4369;47.842;13.096;2022-08-11T00:40:03;5.90;;;4.20;;
8663;SDS011;4369;47.842;13.096;2022-08-11T00:42:42;4.03;;;3.70;;
8663;SDS011;4369;47.842;13.096;2022-08-11T00:45:21;4.90;;;3.63;;
8663;SDS011;4369;47.842;13.096;2022-08-11T00:47:56;4.13;;;3.73;;
8663;SDS011;4369;47.842;13.096;2022-08-11T00:50:34;4.53;;;4.23;;
8663;SDS011;4369;47.842;13.096;2022-08-11T00:53:12;4.60;;;4.20;;
8663;SDS011;4369;47.842;13.096;2022-08-11T00:59:21;3.90;;;3.60;;
8663;SDS011;4369;47.842;13.096;2022-08-11T01:02:14;5.20;;;4.30;;
8663;SDS011;4369;47.842;13.096;2022-08-11T01:10:57;4.00;;;3.70;;
8663;SDS011;4369;47.842;13.096;2022-08-11T01:14:02;4.30;;;4.00;;
8663;SDS011;4369;47.842;13.096;2022-08-11T01:17:29;4.53;;;4.23;;
8663;SDS011;4369;47.842;13.096;2022-08-11T01:27:01;4.73;;;4.33;;
8663;SDS011;4369;47.842;13.096;2022-08-11T01:36:25;4.27;;;3.87;;
8663;SDS011;4369;47.842;13.096;2022-08-11T01:39:19;4.93;;;4.53;;
8663;SDS011;4369;47.842;13.096;2022-08-11T01:42:16;4.83;;;4.40;;
8663;SDS011;4369;47.842;13.096;2022-08-11T01:45:28;9.27;;;5.27;;
8663;SDS011;4369;47.842;13.096;2022-08-11T01:48:01;4.90;;;4.40;;
8663;SDS011;4369;47.842;13.096;2022-08-11T01:50:39;5.30;;;4.90;;
8663;SDS011;4369;47.842;13.096;2022-08-11T01:53:22;4.30;;;4.00;;
8663;SDS011;4369;47.842;13.096;2022-08-11T01:56:00;4.87;;;4.50;;
8663;SDS011;4369;47.842;13.096;2022-08-11T01:58:34;5.10;;;4.50;;
8663;SDS011;4369;47.842;13.096;2022-08-11T02:01:09;5.13;;;4.53;;
8663;SDS011;4369;47.842;13.096;2022-08-11T02:03:51;4.50;;;4.10;;
8663;SDS011;4369;47.842;13.096;2022-08-11T02:06:25;5.00;;;4.50;;
8663;SDS011;4369;47.842;13.096;2022-08-11T02:09:24;4.40;;;4.00;;
8663;SDS011;4369;47.842;13.096;2022-08-11T02:12:00;5.27;;;4.37;;
8663;SDS011;4369;47.842;13.096;2022-08-11T02:14:53;4.77;;;4.27;;
8663;SDS011;4369;47.842;13.096;2022-08-11T02:17:37;4.80;;;4.43;;
8663;SDS011;4369;47.842;13.096;2022-08-11T02:20:15;4.87;;;4.37;;
8663;SDS011;4369;47.842;13.096;2022-08-11T02:23:08;4.70;;;4.30;;
8663;SDS011;4369;47.842;13.096;2022-08-11T02:26:04;6.00;;;4.90;;
8663;SDS011;4369;47.842;13.096;2022-08-11T02:28:40;6.27;;;4.40;;
8663;SDS011;4369;47.842;13.096;2022-08-11T02:31:14;5.17;;;4.67;;
8663;SDS011;4369;47.842;13.096;2022-08-11T02:34:08;5.37;;;4.43;;
8663;SDS011;4369;47.842;13.096;2022-08-11T02:36:44;7.03;;;4.77;;
8663;SDS011;4369;47.842;13.096;2022-08-11T02:39:20;5.33;;;4.83;;
8663;SDS011;4369;47.842;13.096;2022-08-11T02:41:55;5.23;;;4.77;;
8663;SDS011;4369;47.842;13.096;2022-08-11T02:44:50;5.93;;;4.60;;
8663;SDS011;4369;47.842;13.096;2022-08-11T02:47:34;5.17;;;4.77;;
8663;SDS011;4369;47.842;13.096;2022-08-11T02:50:28;5.57;;;5.07;;
8663;SDS011;4369;47.842;13.096;2022-08-11T02:53:00;5.50;;;4.60;;
8663;SDS011;4369;47.842;13.096;2022-08-11T02:55:34;5.83;;;4.83;;
8663;SDS011;4369;47.842;13.096;2022-08-11T02:58:13;5.67;;;5.17;;
8663;SDS011;4369;47.842;13.096;2022-08-11T03:00:45;5.65;;;5.10;;
8663;SDS011;4369;47.842;13.096;2022-08-11T03:03:19;5.67;;;5.10;;
8663;SDS011;4369;47.842;13.096;2022-08-11T03:05:53;5.70;;;5.20;;
8663;SDS011;4369;47.842;13.096;2022-08-11T03:08:30;5.77;;;5.27;;
8663;SDS011;4369;47.842;13.096;2022-08-11T03:11:16;5.73;;;5.23;;
8663;SDS011;4369;47.842;13.096;2022-08-11T03:14:11;5.70;;;4.90;;
8663;SDS011;4369;47.842;13.096;2022-08-11T03:17:03;5.70;;;5.13;;
8663;SDS011;4369;47.842;13.096;2022-08-11T03:19:44;5.87;;;5.37;;
8663;SDS011;4369;47.842;13.096;2022-08-11T03:22:18;6.03;;;5.43;;
8663;SDS011;4369;47.842;13.096;2022-08-11T03:24:52;5.73;;;5.33;;
8663;SDS011;4369;47.842;13.096;2022-08-11T03:27:33;6.33;;;5.47;;
8663;SDS011;4369;47.842;13.096;2022-08-11T03:30:09;6.57;;;5.83;;
8663;SDS011;4369;47.842;13.096;2022-08-11T03:32:41;6.70;;;6.13;;
8663;SDS011;4369;47.842;13.096;2022-08-11T03:35:39;7.47;;;6.03;;
8663;SDS011;4369;47.842;13.096;2022-08-11T03:38:10;6.27;;;5.77;;
8663;SDS011;4369;47.842;13.096;2022-08-11T03:40:44;6.13;;;5.53;;
8663;SDS011;4369;47.842;13.096;2022-08-11T03:43:47;5.80;;;5.30;;
8663;SDS011;4369;47.842;13.096;2022-08-11T03:46:26;5.57;;;5.17;;
8663;SDS011;4369;47.842;13.096;2022-08-11T03:49:05;5.37;;;4.97;;
8663;SDS011;4369;47.842;13.096;2022-08-11T03:51:44;5.30;;;4.83;;
8663;SDS011;4369;47.842;13.096;2022-08-11T03:54:23;6.37;;;5.77;;
8663;SDS011;4369;47.842;13.096;2022-08-11T04:00:14;5.73;;;5.00;;
8663;SDS011;4369;47.842;13.096;2022-08-11T04:13:02;5.50;;;5.00;;
8663;SDS011;4369;47.842;13.096;2022-08-11T04:22:30;5.07;;;4.67;;
8663;SDS011;4369;47.842;13.096;2022-08-11T04:25:23;5.37;;;4.97;;
8663;SDS011;4369;47.842;13.096;2022-08-11T04:31:09;5.40;;;4.90;;
8663;SDS011;4369;47.842;13.096;2022-08-11T04:34:11;7.37;;;5.50;;
8663;SDS011;4369;47.842;13.096;2022-08-11T04:46:41;5.63;;;5.13;;
8663;SDS011;4369;47.842;13.096;2022-08-11T04:52:31;5.73;;;4.93;;
8663;SDS011;4369;47.842;13.096;2022-08-11T04:55:44;5.60;;;4.97;;
8663;SDS011;4369;47.842;13.096;2022-08-11T04:59:08;6.37;;;5.37;;
8663;SDS011;4369;47.842;13.096;2022-08-11T05:05:25;5.50;;;4.93;;
8663;SDS011;4369;47.842;13.096;2022-08-11T05:11:19;8.10;;;5.30;;
8663;SDS011;4369;47.842;13.096;2022-08-11T05:14:06;7.30;;;5.63;;
8663;SDS011;4369;47.842;13.096;2022-08-11T05:17:08;8.00;;;6.47;;
8663;SDS011;4369;47.842;13.096;2022-08-11T05:19:55;6.73;;;5.40;;
8663;SDS011;4369;47.842;13.096;2022-08-11T05:22:43;5.97;;;5.37;;
8663;SDS011;4369;47.842;13.096;2022-08-11T05:25:32;6.70;;;6.10;;
8663;SDS011;4369;47.842;13.096;2022-08-11T05:28:27;7.67;;;6.87;;
8663;SDS011;4369;47.842;13.096;2022-08-11T05:31:32;7.37;;;6.67;;
8663;SDS011;4369;47.842;13.096;2022-08-11T05:34:21;7.23;;;6.50;;
8663;SDS011;4369;47.842;13.096;2022-08-11T05:37:08;7.83;;;6.53;;
8663;SDS011;4369;47.842;13.096;2022-08-11T05:39:43;6.80;;;6.20;;
8663;SDS011;4369;47.842;13.096;2022-08-11T05:42:31;7.17;;;6.47;;
8663;SDS011;4369;47.842;13.096;2022-08-11T05:45:19;7.20;;;6.50;;
8663;SDS011;4369;47.842;13.096;2022-08-11T05:48:06;6.70;;;6.10;;
8663;SDS011;4369;47.842;13.096;2022-08-11T05:50:51;6.40;;;5.80;;
8663;SDS011;4369;47.842;13.096;2022-08-11T05:53:48;9.03;;;5.80;;
8663;SDS011;4369;47.842;13.096;2022-08-11T05:56:41;7.00;;;6.30;;
8663;SDS011;4369;47.842;13.096;2022-08-11T05:59:13;8.23;;;6.90;;
8663;SDS011;4369;47.842;13.096;2022-08-11T06:01:41;6.60;;;5.90;;
8663;SDS011;4369;47.842;13.096;2022-08-11T06:04:13;8.53;;;6.23;;
8663;SDS011;4369;47.842;13.096;2022-08-11T06:06:47;6.90;;;6.20;;
8663;SDS011;4369;47.842;13.096;2022-08-11T06:09:26;7.50;;;6.43;;
8663;SDS011;4369;47.842;13.096;2022-08-11T06:11:58;9.17;;;6.57;;
8663;SDS011;4369;47.842;13.096;2022-08-11T06:14:27;6.53;;;5.73;;
8663;SDS011;4369;47.842;13.096;2022-08-11T06:16:57;8.47;;;5.27;;
8663;SDS011;4369;47.842;13.096;2022-08-11T06:19:32;7.50;;;5.93;;
8663;SDS011;4369;47.842;13.096;2022-08-11T06:22:02;6.13;;;5.63;;
8663;SDS011;4369;47.842;13.096;2022-08-11T06:24:30;9.13;;;5.57;;
8663;SDS011;4369;47.842;13.096;2022-08-11T06:26:59;6.50;;;5.93;;
8663;SDS011;4369;47.842;13.096;2022-08-11T06:29:30;7.10;;;5.67;;
8663;SDS011;4369;47.842;13.096;2022-08-11T06:32:01;7.60;;;5.77;;
8663;SDS011;4369;47.842;13.096;2022-08-11T06:34:36;6.50;;;5.43;;
8663;SDS011;4369;47.842;13.096;2022-08-11T06:37:18;6.90;;;5.87;;
8663;SDS011;4369;47.842;13.096;2022-08-11T06:39:51;6.60;;;5.47;;
8663;SDS011;4369;47.842;13.096;2022-08-11T06:42:35;6.90;;;6.23;;
8663;SDS011;4369;47.842;13.096;2022-08-11T06:45:28;7.33;;;5.70;;
8663;SDS011;4369;47.842;13.096;2022-08-11T06:47:59;6.90;;;6.20;;
8663;SDS011;4369;47.842;13.096;2022-08-11T06:50:27;7.60;;;5.97;;
8663;SDS011;4369;47.842;13.096;2022-08-11T06:53:15;6.50;;;5.80;;
8663;SDS011;4369;47.842;13.096;2022-08-11T06:55:45;6.40;;;5.77;;
8663;SDS011;4369;47.842;13.096;2022-08-11T06:58:35;6.70;;;6.10;;
8663;SDS011;4369;47.842;13.096;2022-08-11T07:01:27;5.80;;;5.30;;
8663;SDS011;4369;47.842;13.096;2022-08-11T07:04:03;6.53;;;5.93;;
8663;SDS011;4369;47.842;13.096;2022-08-11T07:06:38;8.20;;;5.80;;
8663;SDS011;4369;47.842;13.096;2022-08-11T07:09:45;9.73;;;6.40;;
8663;SDS011;4369;47.842;13.096;2022-08-11T07:12:55;7.07;;;6.23;;
8663;SDS011;4369;47.842;13.096;2022-08-11T07:15:42;7.77;;;6.37;;
8663;SDS011;4369;47.842;13.096;2022-08-11T07:18:15;7.23;;;5.67;;
8663;SDS011;4369;47.842;13.096;2022-08-11T07:21:15;5.87;;;5.27;;
8663;SDS011;4369;47.842;13.096;2022-08-11T07:24:08;8.70;;;6.20;;
8663;SDS011;4369;47.842;13.096;2022-08-11T07:26:56;6.37;;;5.73;;
8663;SDS011;4369;47.842;13.096;2022-08-11T07:29:43;6.40;;;5.30;;
8663;SDS011;4369;47.842;13.096;2022-08-11T07:32:24;6.33;;;5.10;;
8663;SDS011;4369;47.842;13.096;2022-08-11T07:34:56;6.00;;;5.03;;
8663;SDS011;4369;47.842;13.096;2022-08-11T07:37:30;8.27;;;4.97;;
8663;SDS011;4369;47.842;13.096;2022-08-11T07:39:58;5.90;;;5.30;;
8663;SDS011;4369;47.842;13.096;2022-08-11T07:42:28;5.83;;;4.93;;
8663;SDS011;4369;47.842;13.096;2022-08-11T07:44:59;5.63;;;4.87;;
8663;SDS011;4369;47.842;13.096;2022-08-11T07:47:49;6.47;;;4.90;;
8663;SDS011;4369;47.842;13.096;2022-08-11T07:50:34;8.37;;;5.50;;
8663;SDS011;4369;47.842;13.096;2022-08-11T07:53:23;5.30;;;4.63;;
8663;SDS011;4369;47.842;13.096;2022-08-11T07:55:52;5.20;;;4.70;;
8663;SDS011;4369;47.842;13.096;2022-08-11T07:58:21;5.40;;;4.80;;
8663;SDS011;4369;47.842;13.096;2022-08-11T08:01:06;6.30;;;4.57;;
8663;SDS011;4369;47.842;13.096;2022-08-11T08:03:52;5.10;;;4.60;;
8663;SDS011;4369;47.842;13.096;2022-08-11T08:06:37;5.67;;;4.80;;
8663;SDS011;4369;47.842;13.096;2022-08-11T08:09:23;5.50;;;4.67;;
8663;SDS011;4369;47.842;13.096;2022-08-11T08:12:08;5.87;;;4.90;;
8663;SDS011;4369;47.842;13.096;2022-08-11T08:14:53;5.77;;;4.83;;
8663;SDS011;4369;47.842;13.096;2022-08-11T08:17:39;5.03;;;4.53;;
8663;SDS011;4369;47.842;13.096;2022-08-11T08:20:16;5.00;;;4.57;;
8663;SDS011;4369;47.842;13.096;2022-08-11T08:22:45;5.80;;;5.30;;
8663;SDS011;4369;47.842;13.096;2022-08-11T08:25:16;5.67;;;5.07;;
8663;SDS011;4369;47.842;13.096;2022-08-11T08:27:44;6.10;;;4.60;;
8663;SDS011;4369;47.842;13.096;2022-08-11T08:30:11;5.30;;;4.83;;
8663;SDS011;4369;47.842;13.096;2022-08-11T08:32:56;7.57;;;4.87;;
8663;SDS011;4369;47.842;13.096;2022-08-11T08:35:26;6.43;;;5.20;;
8663;SDS011;4369;47.842;13.096;2022-08-11T08:37:54;5.57;;;5.07;;
8663;SDS011;4369;47.842;13.096;2022-08-11T08:40:21;8.33;;;5.20;;
8663;SDS011;4369;47.842;13.096;2022-08-11T08:42:49;7.00;;;5.40;;
8663;SDS011;4369;47.842;13.096;2022-08-11T08:45:20;12.53;;;5.27;;
8663;SDS011;4369;47.842;13.096;2022-08-11T08:47:50;6.30;;;4.63;;
8663;SDS011;4369;47.842;13.096;2022-08-11T08:50:22;5.07;;;4.70;;
8663;SDS011;4369;47.842;13.096;2022-08-11T08:53:16;5.63;;;4.80;;
8663;SDS011;4369;47.842;13.096;2022-08-11T08:55:47;5.20;;;4.40;;
8663;SDS011;4369;47.842;13.096;2022-08-11T08:58:15;5.33;;;4.83;;
8663;SDS011;4369;47.842;13.096;2022-08-11T09:00:45;5.87;;;5.20;;
8663;SDS011;4369;47.842;13.096;2022-08-11T09:03:18;5.17;;;4.63;;
8663;SDS011;4369;47.842;13.096;2022-08-11T09:05:47;5.43;;;4.93;;
8663;SDS011;4369;47.842;13.096;2022-08-11T09:08:15;5.20;;;4.70;;
8663;SDS011;4369;47.842;13.096;2022-08-11T09:10:44;5.30;;;4.80;;
8663;SDS011;4369;47.842;13.096;2022-08-11T09:13:32;6.47;;;5.37;;
8663;SDS011;4369;47.842;13.096;2022-08-11T09:16:00;5.03;;;4.53;;
8663;SDS011;4369;47.842;13.096;2022-08-11T09:18:28;5.10;;;4.70;;
8663;SDS011;4369;47.842;13.096;2022-08-11T09:20:57;6.33;;;4.53;;
8663;SDS011;4369;47.842;13.096;2022-08-11T09:23:27;5.57;;;4.77;;
8663;SDS011;4369;47.842;13.096;2022-08-11T09:26:20;5.03;;;4.47;;
8663;SDS011;4369;47.842;13.096;2022-08-11T09:29:05;6.20;;;5.00;;
8663;SDS011;4369;47.842;13.096;2022-08-11T09:31:35;6.20;;;4.80;;
8663;SDS011;4369;47.842;13.096;2022-08-11T09:34:02;5.63;;;4.50;;
8663;SDS011;4369;47.842;13.096;2022-08-11T09:36:31;5.40;;;4.30;;
8663;SDS011;4369;47.842;13.096;2022-08-11T09:39:15;5.43;;;4.90;;
8663;SDS011;4369;47.842;13.096;2022-08-11T09:42:01;6.50;;;4.67;;
8663;SDS011;4369;47.842;13.096;2022-08-11T09:44:29;8.20;;;4.87;;
8663;SDS011;4369;47.842;13.096;2022-08-11T09:47:13;9.43;;;4.80;;
8663;SDS011;4369;47.842;13.096;2022-08-11T09:49:44;7.03;;;5.10;;
8663;SDS011;4369;47.842;13.096;2022-08-11T09:52:14;7.57;;;4.37;;
8663;SDS011;4369;47.842;13.096;2022-08-11T09:54:43;5.30;;;4.80;;
8663;SDS011;4369;47.842;13.096;2022-08-11T09:57:13;5.87;;;4.73;;
8663;SDS011;4369;47.842;13.096;2022-08-11T10:00:02;7.33;;;4.73;;
8663;SDS011;4369;47.842;13.096;2022-08-11T10:02:30;5.03;;;4.60;;
8663;SDS011;4369;47.842;13.096;2022-08-11T10:04:58;6.60;;;5.10;;
8663;SDS011;4369;47.842;13.096;2022-08-11T10:07:41;5.13;;;4.30;;
8663;SDS011;4369;47.842;13.096;2022-08-11T10:10:14;5.07;;;4.50;;
8663;SDS011;4369;47.842;13.096;2022-08-11T10:12:45;4.53;;;4.13;;
8663;SDS011;4369;47.842;13.096;2022-08-11T10:15:15;9.70;;;6.28;;
8663;SDS011;4369;47.842;13.096;2022-08-11T10:17:59;10.38;;;5.32;;
8663;SDS011;4369;47.842;13.096;2022-08-11T10:20:47;8.10;;;4.68;;
8663;SDS011;4369;47.842;13.096;2022-08-11T10:23:17;6.45;;;4.90;;
8663;SDS011;4369;47.842;13.096;2022-08-11T10:26:02;8.55;;;4.50;;
8663;SDS011;4369;47.842;13.096;2022-08-11T10:28:49;7.00;;;4.60;;
8663;SDS011;4369;47.842;13.096;2022-08-11T10:31:18;5.05;;;4.30;;
8663;SDS011;4369;47.842;13.096;2022-08-11T10:34:04;12.25;;;5.15;;
8663;SDS011;4369;47.842;13.096;2022-08-11T10:36:32;5.28;;;4.20;;
8663;SDS011;4369;47.842;13.096;2022-08-11T10:39:08;5.85;;;4.00;;
8663;SDS011;4369;47.842;13.096;2022-08-11T10:41:41;4.22;;;3.83;;
8663;SDS011;4369;47.842;13.096;2022-08-11T10:44:27;5.25;;;4.10;;
8663;SDS011;4369;47.842;13.096;2022-08-11T10:46:57;5.50;;;4.05;;
8663;SDS011;4369;47.842;13.096;2022-08-11T10:49:43;5.32;;;4.18;;
8663;SDS011;4369;47.842;13.096;2022-08-11T10:52:30;4.93;;;4.47;;
8663;SDS011;4369;47.842;13.096;2022-08-11T10:55:16;8.15;;;4.88;;
8663;SDS011;4369;47.842;13.096;2022-08-11T10:58:01;5.25;;;4.07;;
8663;SDS011;4369;47.842;13.096;2022-08-11T11:00:45;5.63;;;4.10;;
8663;SDS011;4369;47.842;13.096;2022-08-11T11:03:12;5.30;;;4.05;;
8663;SDS011;4369;47.842;13.096;2022-08-11T11:05:39;6.95;;;4.20;;
8663;SDS011;4369;47.842;13.096;2022-08-11T11:08:09;5.18;;;3.97;;
8663;SDS011;4369;47.842;13.096;2022-08-11T11:10:53;5.18;;;4.05;;
8663;SDS011;4369;47.842;13.096;2022-08-11T11:13:21;6.13;;;4.07;;
8663;SDS011;4369;47.842;13.096;2022-08-11T11:16:07;4.38;;;3.97;;
8663;SDS011;4369;47.842;13.096;2022-08-11T11:18:55;8.02;;;4.22;;
8663;SDS011;4369;47.842;13.096;2022-08-11T11:21:25;4.60;;;3.83;;
8663;SDS011;4369;47.842;13.096;2022-08-11T11:23:55;4.13;;;3.72;;
8663;SDS011;4369;47.842;13.096;2022-08-11T11:26:42;4.60;;;4.20;;
8663;SDS011;4369;47.842;13.096;2022-08-11T11:29:38;4.05;;;3.65;;
8663;SDS011;4369;47.842;13.096;2022-08-11T11:32:22;4.07;;;3.75;;
8663;SDS011;4369;47.842;13.096;2022-08-11T11:35:00;4.10;;;3.42;;
8663;SDS011;4369;47.842;13.096;2022-08-11T11:37:40;6.28;;;3.38;;
8663;SDS011;4369;47.842;13.096;2022-08-11T11:40:09;4.40;;;3.60;;
8663;SDS011;4369;47.842;13.096;2022-08-11T11:42:39;4.25;;;3.17;;
8663;SDS011;4369;47.842;13.096;2022-08-11T11:45:08;4.13;;;3.35;;
8663;SDS011;4369;47.842;13.096;2022-08-11T11:47:36;5.82;;;3.47;;
8663;SDS011;4369;47.842;13.096;2022-08-11T11:50:04;6.30;;;3.40;;
8663;SDS011;4369;47.842;13.096;2022-08-11T11:52:35;4.88;;;3.50;;
8663;SDS011;4369;47.842;13.096;2022-08-11T11:57:54;4.35;;;3.75;;
8663;SDS011;4369;47.842;13.096;2022-08-11T12:00:42;4.82;;;3.50;;
8663;SDS011;4369;47.842;13.096;2022-08-11T12:03:27;8.63;;;3.63;;
8663;SDS011;4369;47.842;13.096;2022-08-11T12:05:56;3.85;;;3.55;;
8663;SDS011;4369;47.842;13.096;2022-08-11T12:08:23;4.78;;;3.47;;
8663;SDS011;4369;47.842;13.096;2022-08-11T12:10:53;4.03;;;3.72;;
8663;SDS011;4369;47.842;13.096;2022-08-11T12:13:37;5.22;;;3.38;;
8663;SDS011;4369;47.842;13.096;2022-08-11T12:16:08;3.50;;;3.20;;
8663;SDS011;4369;47.842;13.096;2022-08-11T12:18:36;5.25;;;3.40;;
8663;SDS011;4369;47.842;13.096;2022-08-11T12:21:05;3.92;;;3.25;;
8663;SDS011;4369;47.842;13.096;2022-08-11T12:23:35;3.53;;;3.17;;
8663;SDS011;4369;47.842;13.096;2022-08-11T12:26:21;4.78;;;3.92;;
8663;SDS011;4369;47.842;13.096;2022-08-11T12:29:08;3.25;;;3.05;;
8663;SDS011;4369;47.842;13.096;2022-08-11T12:31:37;3.28;;;3.08;;
8663;SDS011;4369;47.842;13.096;2022-08-11T12:34:06;4.55;;;3.15;;
8663;SDS011;4369;47.842;13.096;2022-08-11T12:36:35;5.30;;;3.47;;
8663;SDS011;4369;47.842;13.096;2022-08-11T12:39:05;3.40;;;3.20;;
8663;SDS011;4369;47.842;13.096;2022-08-11T12:41:35;3.85;;;3.28;;
8663;SDS011;4369;47.842;13.096;2022-08-11T12:44:22;7.25;;;3.42;;
8663;SDS011;4369;47.842;13.096;2022-08-11T12:47:10;4.10;;;3.30;;
8663;SDS011;4369;47.842;13.096;2022-08-11T12:49:43;4.13;;;2.90;;
8663;SDS011;4369;47.842;13.096;2022-08-11T12:52:31;4.40;;;3.15;;
8663;SDS011;4369;47.842;13.096;2022-08-11T12:55:05;4.47;;;3.03;;
8663;SDS011;4369;47.842;13.096;2022-08-11T12:57:37;3.78;;;3.47;;
8663;SDS011;4369;47.842;13.096;2022-08-11T13:00:26;7.93;;;2.88;;
8663;SDS011;4369;47.842;13.096;2022-08-11T13:03:12;3.55;;;3.10;;
8663;SDS011;4369;47.842;13.096;2022-08-11T13:05:58;3.80;;;2.95;;
8663;SDS011;4369;47.842;13.096;2022-08-11T13:08:27;3.38;;;2.90;;
8663;SDS011;4369;47.842;13.096;2022-08-11T13:10:57;4.20;;;2.88;;
8663;SDS011;4369;47.842;13.096;2022-08-11T13:13:42;4.15;;;2.97;;
8663;SDS011;4369;47.842;13.096;2022-08-11T13:16:14;2.95;;;2.67;;
8663;SDS011;4369;47.842;13.096;2022-08-11T13:18:42;3.15;;;2.95;;
8663;SDS011;4369;47.842;13.096;2022-08-11T13:21:11;2.70;;;2.50;;
8663;SDS011;4369;47.842;13.096;2022-08-11T13:23:39;4.60;;;2.58;;
8663;SDS011;4369;47.842;13.096;2022-08-11T13:26:06;3.00;;;2.80;;
8663;SDS011;4369;47.842;13.096;2022-08-11T13:28:34;2.90;;;2.70;;
8663;SDS011;4369;47.842;13.096;2022-08-11T13:31:02;2.63;;;2.42;;
8663;SDS011;4369;47.842;13.096;2022-08-11T13:33:41;2.30;;;2.20;;
8663;SDS011;4369;47.842;13.096;2022-08-11T13:36:11;5.43;;;2.70;;
8663;SDS011;4369;47.842;13.096;2022-08-11T13:38:39;4.05;;;2.45;;
8663;SDS011;4369;47.842;13.096;2022-08-11T13:41:08;4.10;;;2.63;;
8663;SDS011;4369;47.842;13.096;2022-08-11T13:43:49;2.50;;;2.15;;
8663;SDS011;4369;47.842;13.096;2022-08-11T13:46:18;2.65;;;2.45;;
8663;SDS011;4369;47.842;13.096;2022-08-11T13:48:48;3.65;;;2.60;;
8663;SDS011;4369;47.842;13.096;2022-08-11T13:51:16;2.50;;;2.35;;
8663;SDS011;4369;47.842;13.096;2022-08-11T13:53:57;2.80;;;2.53;;
8663;SDS011;4369;47.842;13.096;2022-08-11T13:56:25;2.60;;;2.40;;
8663;SDS011;4369;47.842;13.096;2022-08-11T13:58:53;2.40;;;2.20;;
8663;SDS011;4369;47.842;13.096;2022-08-11T14:01:21;2.50;;;2.30;;
8663;SDS011;4369;47.842;13.096;2022-08-11T14:03:53;3.53;;;2.30;;
8663;SDS011;4369;47.842;13.096;2022-08-11T14:06:20;2.55;;;2.45;;
8663;SDS011;4369;47.842;13.096;2022-08-11T14:08:50;2.78;;;2.58;;
8663;SDS011;4369;47.842;13.096;2022-08-11T14:11:18;2.72;;;2.45;;
8663;SDS011;4369;47.842;13.096;2022-08-11T14:14:03;4.60;;;2.65;;
8663;SDS011;4369;47.842;13.096;2022-08-11T14:16:33;2.72;;;2.53;;
8663;SDS011;4369;47.842;13.096;2022-08-11T14:19:08;2.67;;;2.40;;
8663;SDS011;4369;47.842;13.096;2022-08-11T14:21:39;3.63;;;2.90;;
8663;SDS011;4369;47.842;13.096;2022-08-11T14:24:25;4.65;;;2.72;;
8663;SDS011;4369;47.842;13.096;2022-08-11T14:26:52;2.90;;;2.60;;
8663;SDS011;4369;47.842;13.096;2022-08-11T14:29:20;3.13;;;2.50;;
8663;SDS011;4369;47.842;13.096;2022-08-11T14:31:51;2.50;;;2.40;;
8663;SDS011;4369;47.842;13.096;2022-08-11T14:34:21;3.70;;;2.75;;
8663;SDS011;4369;47.842;13.096;2022-08-11T14:36:50;3.97;;;2.75;;
8663;SDS011;4369;47.842;13.096;2022-08-11T14:39:18;2.92;;;2.72;;
8663;SDS011;4369;47.842;13.096;2022-08-11T14:41:49;2.78;;;2.58;;
8663;SDS011;4369;47.842;13.096;2022-08-11T14:44:36;3.40;;;2.70;;
8663;SDS011;4369;47.842;13.096;2022-08-11T14:47:24;4.53;;;3.22;;
8663;SDS011;4369;47.842;13.096;2022-08-11T14:49:55;2.70;;;2.50;;
8663;SDS011;4369;47.842;13.096;2022-08-11T14:52:24;4.03;;;2.80;;
8663;SDS011;4369;47.842;13.096;2022-08-11T14:54:52;3.72;;;2.88;;
8663;SDS011;4369;47.842;13.096;2022-08-11T14:57:38;3.78;;;3.30;;
8663;SDS011;4369;47.842;13.096;2022-08-11T15:00:07;4.93;;;2.80;;
8663;SDS011;4369;47.842;13.096;2022-08-11T15:02:39;3.08;;;2.88;;
8663;SDS011;4369;47.842;13.096;2022-08-11T15:05:26;2.90;;;2.70;;
8663;SDS011;4369;47.842;13.096;2022-08-11T15:07:54;2.97;;;2.70;;
8663;SDS011;4369;47.842;13.096;2022-08-11T15:10:22;3.55;;;2.42;;
8663;SDS011;4369;47.842;13.096;2022-08-11T15:12:50;3.15;;;2.90;;
8663;SDS011;4369;47.842;13.096;2022-08-11T15:15:17;7.35;;;2.55;;
8663;SDS011;4369;47.842;13.096;2022-08-11T15:18:04;3.63;;;2.50;;
8663;SDS011;4369;47.842;13.096;2022-08-11T15:20:33;3.30;;;3.08;;
8663;SDS011;4369;47.842;13.096;2022-08-11T15:23:33;3.38;;;2.70;;
8663;SDS011;4369;47.842;13.096;2022-08-11T15:26:18;4.03;;;2.60;;
8663;SDS011;4369;47.842;13.096;2022-08-11T15:29:07;2.88;;;2.45;;
8663;SDS011;4369;47.842;13.096;2022-08-11T15:31:54;3.13;;;2.50;;
8663;SDS011;4369;47.842;13.096;2022-08-11T15:34:39;2.80;;;2.60;;
8663;SDS011;4369;47.842;13.096;2022-08-11T15:37:25;4.15;;;2.60;;
8663;SDS011;4369;47.842;13.096;2022-08-11T15:39:57;3.80;;;2.63;;
8663;SDS011;4369;47.842;13.096;2022-08-11T15:42:49;2.50;;;2.30;;
8663;SDS011;4369;47.842;13.096;2022-08-11T15:45:46;2.95;;;2.72;;
8663;SDS011;4369;47.842;13.096;2022-08-11T15:48:23;2.47;;;2.38;;
8663;SDS011;4369;47.842;13.096;2022-08-11T15:51:05;2.88;;;2.67;;
8663;SDS011;4369;47.842;13.096;2022-08-11T15:53:39;4.25;;;2.80;;
8663;SDS011;4369;47.842;13.096;2022-08-11T15:56:08;3.35;;;2.70;;
8663;SDS011;4369;47.842;13.096;2022-08-11T15:58:38;3.25;;;2.65;;
8663;SDS011;4369;47.842;13.096;2022-08-11T16:01:24;4.43;;;2.65;;
8663;SDS011;4369;47.842;13.096;2022-08-11T16:04:13;3.38;;;2.95;;
8663;SDS011;4369;47.842;13.096;2022-08-11T16:06:47;3.22;;;2.85;;
8663;SDS011;4369;47.842;13.096;2022-08-11T16:09:21;4.95;;;2.75;;
8663;SDS011;4369;47.842;13.096;2022-08-11T16:11:51;4.40;;;3.28;;
8663;SDS011;4369;47.842;13.096;2022-08-11T16:14:21;3.40;;;3.10;;
8663;SDS011;4369;47.842;13.096;2022-08-11T16:17:08;3.55;;;2.92;;
8663;SDS011;4369;47.842;13.096;2022-08-11T16:26:29;3.53;;;3.03;;
8663;SDS011;4369;47.842;13.096;2022-08-11T16:28:59;4.65;;;3.10;;
8663;SDS011;4369;47.842;13.096;2022-08-11T16:31:28;5.35;;;3.28;;
8663;SDS011;4369;47.842;13.096;2022-08-11T16:33:58;5.07;;;3.05;;
8663;SDS011;4369;47.842;13.096;2022-08-11T16:36:26;4.75;;;2.90;;
8663;SDS011;4369;47.842;13.096;2022-08-11T16:39:12;3.10;;;2.90;;
8663;SDS011;4369;47.842;13.096;2022-08-11T16:41:44;5.53;;;3.05;;
8663;SDS011;4369;47.842;13.096;2022-08-11T16:44:30;6.00;;;2.83;;
8663;SDS011;4369;47.842;13.096;2022-08-11T16:47:16;3.20;;;2.90;;
8663;SDS011;4369;47.842;13.096;2022-08-11T16:49:46;3.28;;;3.03;;
8663;SDS011;4369;47.842;13.096;2022-08-11T16:52:15;5.18;;;3.30;;
8663;SDS011;4369;47.842;13.096;2022-08-11T16:54:43;3.47;;;3.17;;
8663;SDS011;4369;47.842;13.096;2022-08-11T16:57:14;6.43;;;3.25;;
8663;SDS011;4369;47.842;13.096;2022-08-11T17:00:02;3.33;;;3.03;;
8663;SDS011;4369;47.842;13.096;2022-08-11T17:02:31;2.65;;;2.45;;
8663;SDS011;4369;47.842;13.096;2022-08-11T17:05:19;3.10;;;2.90;;
8663;SDS011;4369;47.842;13.096;2022-08-11T17:08:07;3.03;;;2.70;;
8663;SDS011;4369;47.842;13.096;2022-08-11T17:10:55;3.33;;;2.90;;
8663;SDS011;4369;47.842;13.096;2022-08-11T17:13:43;3.55;;;2.72;;
8663;SDS011;4369;47.842;13.096;2022-08-11T17:16:17;3.53;;;3.05;;
8663;SDS011;4369;47.842;13.096;2022-08-11T17:18:50;3.47;;;3.25;;
8663;SDS011;4369;47.842;13.096;2022-08-11T17:21:24;4.35;;;3.33;;
8663;SDS011;4369;47.842;13.096;2022-08-11T17:23:54;5.18;;;4.28;;